createdAt,value
2023-01-31T00:01:47.801Z,5.50
2023-01-31T00:04:52.315Z,5.50
2023-01-31T00:07:55.572Z,5.40
2023-01-31T00:11:00.023Z,5.30
2023-01-31T00:14:04.611Z,5.30
2023-01-31T00:17:07.542Z,5.20
2023-01-31T00:20:13.540Z,5.10
2023-01-31T00:23:16.819Z,5.10
2023-01-31T00:26:22.278Z,5.10
2023-01-31T00:29:25.622Z,5.00
2023-01-31T00:32:28.661Z,5.00
2023-01-31T00:35:32.921Z,5.00
2023-01-31T00:38:36.878Z,5.10
2023-01-31T00:41:40.308Z,5.20
2023-01-31T00:44:43.240Z,5.30
2023-01-31T00:47:46.203Z,5.30
2023-01-31T00:50:50.479Z,5.30
2023-01-31T00:53:53.467Z,5.40
2023-01-31T00:56:56.419Z,5.30
2023-01-31T00:59:59.351Z,5.20
2023-01-31T01:03:02.315Z,5.10
2023-01-31T01:06:07.815Z,5.10
2023-01-31T01:09:10.787Z,5.00
2023-01-31T01:12:13.706Z,4.90
2023-01-31T01:15:17.562Z,4.80
2023-01-31T01:18:20.921Z,4.60
2023-01-31T01:21:27.731Z,4.40
2023-01-31T01:24:30.737Z,4.30
2023-01-31T01:27:34.698Z,4.30
2023-01-31T01:30:39.145Z,4.20
2023-01-31T01:33:42.132Z,4.20
2023-01-31T01:36:48.123Z,4.20
2023-01-31T01:39:52.245Z,4.20
2023-01-31T01:42:55.439Z,4.20
2023-01-31T01:45:58.580Z,4.20
2023-01-31T01:49:06.479Z,4.10
2023-01-31T01:52:13.445Z,4.10
2023-01-31T01:55:22.845Z,4.10
2023-01-31T01:58:31.829Z,4.20
2023-01-31T02:01:36.923Z,4.20
2023-01-31T02:04:41.448Z,4.20
2023-01-31T02:07:45.761Z,4.20
2023-01-31T02:10:53.327Z,4.30
2023-01-31T02:14:01.926Z,4.40
2023-01-31T02:17:04.979Z,4.40
2023-01-31T02:20:25.487Z,4.50
2023-01-31T02:23:56.129Z,4.60
2023-01-31T02:27:24.473Z,4.70
2023-01-31T02:31:01.696Z,4.90
2023-01-31T02:34:10.665Z,5.00
2023-01-31T02:37:22.689Z,5.00
2023-01-31T02:40:35.917Z,5.00
2023-01-31T02:44:00.587Z,5.00
2023-01-31T02:47:11.391Z,4.90
2023-01-31T02:50:25.336Z,4.90
2023-01-31T02:53:33.304Z,4.90
2023-01-31T02:56:38.143Z,4.90
2023-01-31T02:59:41.579Z,4.90
2023-01-31T03:02:44.682Z,4.90
2023-01-31T03:06:29.471Z,5.00
2023-01-31T03:09:47.925Z,5.10
2023-01-31T03:13:03.274Z,5.10
2023-01-31T03:16:37.260Z,5.10
2023-01-31T03:19:47.497Z,5.00
2023-01-31T03:22:55.500Z,4.90
2023-01-31T03:26:02.544Z,4.80
2023-01-31T03:29:07.893Z,4.80
2023-01-31T03:32:25.606Z,4.80
2023-01-31T03:35:31.899Z,4.80
2023-01-31T03:38:38.425Z,4.70
2023-01-31T03:41:51.784Z,4.60
2023-01-31T03:44:59.805Z,4.60
2023-01-31T03:48:06.627Z,4.50
2023-01-31T03:51:14.125Z,4.60
2023-01-31T03:54:21.991Z,4.70
2023-01-31T03:57:32.441Z,4.80
2023-01-31T04:00:38.468Z,4.80
2023-01-31T04:03:44.632Z,4.80
2023-01-31T04:06:50.132Z,4.90
2023-01-31T04:09:53.140Z,4.80
2023-01-31T04:12:57.476Z,4.90
2023-01-31T04:16:00.771Z,4.90
2023-01-31T04:19:03.757Z,4.90
2023-01-31T04:22:06.760Z,4.90
2023-01-31T04:25:10.263Z,5.00
2023-01-31T04:28:14.665Z,5.00
2023-01-31T04:31:17.755Z,5.10
2023-01-31T04:34:20.791Z,5.10
2023-01-31T04:37:23.779Z,5.10
2023-01-31T04:40:26.752Z,5.10
2023-01-31T04:43:31.060Z,5.10
2023-01-31T04:46:34.055Z,5.00
2023-01-31T04:49:37.013Z,5.00
2023-01-31T04:52:39.950Z,5.10
2023-01-31T04:55:42.870Z,5.10
2023-01-31T04:58:48.304Z,5.10
2023-01-31T05:01:51.224Z,5.20
2023-01-31T05:04:54.193Z,5.10
2023-01-31T05:07:57.167Z,5.10
2023-01-31T05:11:03.092Z,5.10
2023-01-31T05:14:08.653Z,5.20
2023-01-31T05:17:11.596Z,5.20
2023-01-31T05:20:14.543Z,5.20
2023-01-31T05:23:18.075Z,5.10
2023-01-31T05:26:21.076Z,5.10
2023-01-31T05:29:26.432Z,5.10
2023-01-31T05:32:29.565Z,5.10
2023-01-31T05:35:32.508Z,5.10
2023-01-31T05:38:35.479Z,5.20
2023-01-31T05:41:38.419Z,5.30
2023-01-31T05:44:42.682Z,5.30
2023-01-31T05:47:47.502Z,5.30
2023-01-31T05:50:50.805Z,5.30
2023-01-31T05:53:54.853Z,5.20
2023-01-31T05:56:57.820Z,5.20
2023-01-31T06:00:02.394Z,5.20
2023-01-31T06:03:05.547Z,5.30
2023-01-31T06:06:08.609Z,5.30
2023-01-31T06:09:11.743Z,5.30
2023-01-31T06:12:15.552Z,5.30
2023-01-31T06:15:20.106Z,5.30
2023-01-31T06:18:23.571Z,5.30
2023-01-31T06:21:26.547Z,5.30
2023-01-31T06:24:29.499Z,5.30
2023-01-31T06:27:33.474Z,5.30
2023-01-31T06:30:38.394Z,5.30
2023-01-31T06:33:47.449Z,5.40
2023-01-31T06:36:51.007Z,5.40
2023-01-31T06:39:54.109Z,5.40
2023-01-31T06:42:57.699Z,5.50
2023-01-31T06:46:01.998Z,5.50
2023-01-31T06:49:05.245Z,5.60
2023-01-31T06:52:08.313Z,5.60
2023-01-31T06:55:11.649Z,5.60
2023-01-31T06:58:14.642Z,5.60
2023-01-31T07:01:18.959Z,5.60
2023-01-31T07:04:22.084Z,5.60
2023-01-31T07:07:25.075Z,5.50
2023-01-31T07:10:28.036Z,5.50
2023-01-31T07:13:31.386Z,5.50
2023-01-31T07:16:37.976Z,5.50
2023-01-31T07:19:40.960Z,5.50
2023-01-31T07:22:43.864Z,5.50
2023-01-31T07:25:46.802Z,5.50
2023-01-31T07:28:49.739Z,5.60
2023-01-31T07:31:55.608Z,5.60
2023-01-31T07:34:58.702Z,5.60
2023-01-31T07:38:01.632Z,5.60
2023-01-31T07:41:05.817Z,5.70
2023-01-31T07:44:11.492Z,5.70
2023-01-31T07:47:15.801Z,5.70
2023-01-31T07:50:19.126Z,5.70
2023-01-31T07:53:22.084Z,5.80
2023-01-31T07:56:25.013Z,5.80
2023-01-31T07:59:27.969Z,5.90
2023-01-31T08:02:50.046Z,5.90
2023-01-31T08:05:53.022Z,6.00
2023-01-31T08:08:55.991Z,6.00
2023-01-31T08:11:59.003Z,6.00
2023-01-31T08:15:01.933Z,6.10
2023-01-31T08:18:06.727Z,6.10
2023-01-31T08:21:12.753Z,6.10
2023-01-31T08:24:15.723Z,6.10
2023-01-31T08:27:18.765Z,6.20
2023-01-31T08:30:21.976Z,6.30
2023-01-31T08:33:26.483Z,6.30
2023-01-31T08:36:31.855Z,6.30
2023-01-31T08:39:35.003Z,6.30
2023-01-31T08:42:37.969Z,6.20
2023-01-31T08:45:41.226Z,6.20
2023-01-31T08:48:45.520Z,6.30
2023-01-31T08:51:48.626Z,6.40
2023-01-31T08:54:51.719Z,6.50
2023-01-31T08:57:59.809Z,6.50
2023-01-31T09:01:03.900Z,6.50
2023-01-31T09:04:09.183Z,6.50
2023-01-31T09:07:12.123Z,6.50
2023-01-31T09:10:15.133Z,6.50
2023-01-31T09:13:18.089Z,6.40
2023-01-31T09:16:22.035Z,6.50
2023-01-31T09:19:26.451Z,6.40
2023-01-31T09:22:32.341Z,6.50
2023-01-31T09:25:46.409Z,6.40
2023-01-31T09:28:50.992Z,6.40
2023-01-31T09:31:54.392Z,6.50
2023-01-31T09:34:58.768Z,6.60
2023-01-31T09:38:01.798Z,6.60
2023-01-31T09:41:06.725Z,6.60
2023-01-31T09:44:15.984Z,6.50
2023-01-31T09:47:24.641Z,6.50
2023-01-31T09:50:35.816Z,6.50
2023-01-31T09:53:41.189Z,6.40
2023-01-31T09:56:51.495Z,6.40
2023-01-31T10:00:04.318Z,6.40
2023-01-31T10:03:39.642Z,6.30
2023-01-31T10:06:50.091Z,6.30
2023-01-31T10:09:58.219Z,6.30
2023-01-31T10:13:04.662Z,6.30
2023-01-31T10:16:18.724Z,6.30
2023-01-31T10:19:26.236Z,6.30
2023-01-31T10:22:37.060Z,6.30
2023-01-31T10:25:45.162Z,6.30
2023-01-31T10:28:52.505Z,6.30
2023-01-31T10:31:59.801Z,6.30
2023-01-31T10:35:11.000Z,6.40
2023-01-31T10:38:20.759Z,6.40
2023-01-31T10:41:34.263Z,6.30
2023-01-31T10:44:52.893Z,6.40
2023-01-31T10:48:12.629Z,6.40
2023-01-31T10:51:30.219Z,6.40
2023-01-31T10:54:48.882Z,6.40
2023-01-31T10:57:52.710Z,6.40
2023-01-31T11:00:56.056Z,6.40
2023-01-31T11:04:00.387Z,6.50
2023-01-31T11:07:04.100Z,6.50
2023-01-31T11:10:25.249Z,6.50
2023-01-31T11:13:28.194Z,6.60
2023-01-31T11:16:33.979Z,6.60
2023-01-31T11:19:40.791Z,6.70
2023-01-31T11:22:47.750Z,6.70
2023-01-31T11:25:53.886Z,6.70
2023-01-31T11:28:57.159Z,6.70
2023-01-31T11:32:02.482Z,6.80
2023-01-31T11:35:07.866Z,6.80
2023-01-31T11:38:22.177Z,6.80
2023-01-31T11:41:33.020Z,6.90
2023-01-31T11:44:35.961Z,6.90
2023-01-31T11:47:43.770Z,6.80
2023-01-31T11:50:52.217Z,6.70
2023-01-31T11:53:55.304Z,6.80
2023-01-31T11:57:00.547Z,6.80
2023-01-31T12:00:07.135Z,6.80
2023-01-31T12:03:17.751Z,6.80
2023-01-31T12:06:28.718Z,6.80
2023-01-31T12:09:42.677Z,6.80
2023-01-31T12:12:47.011Z,6.80
2023-01-31T12:15:55.757Z,6.80
2023-01-31T12:19:09.699Z,6.80
2023-01-31T12:22:17.988Z,6.80
2023-01-31T12:25:29.497Z,6.90
2023-01-31T12:28:46.900Z,6.80
2023-01-31T12:32:14.019Z,6.90
2023-01-31T12:35:30.626Z,7.00
2023-01-31T12:38:55.502Z,7.00
2023-01-31T12:42:12.308Z,7.00
2023-01-31T12:45:28.946Z,7.10
2023-01-31T12:48:59.185Z,7.10
2023-01-31T12:52:11.500Z,7.10
2023-01-31T12:55:25.201Z,7.10
2023-01-31T12:58:42.655Z,7.10
2023-01-31T13:01:53.093Z,7.20
2023-01-31T13:05:02.326Z,7.20
2023-01-31T13:08:17.357Z,7.20
2023-01-31T13:11:25.641Z,7.30
2023-01-31T13:14:32.397Z,7.30
2023-01-31T13:17:40.449Z,7.30
2023-01-31T13:20:48.017Z,7.30
2023-01-31T13:23:56.107Z,7.30
2023-01-31T13:27:03.345Z,7.40
2023-01-31T13:30:16.234Z,7.40
2023-01-31T13:33:33.379Z,7.40
2023-01-31T13:36:43.252Z,7.40
2023-01-31T13:39:49.867Z,7.50
2023-01-31T13:42:53.922Z,7.60
2023-01-31T13:46:01.003Z,7.70
2023-01-31T13:49:09.002Z,7.70
2023-01-31T13:52:18.114Z,7.70
2023-01-31T13:55:23.468Z,7.70
2023-01-31T13:58:32.366Z,7.80
2023-01-31T14:01:43.677Z,7.80
2023-01-31T14:04:48.396Z,7.90
2023-01-31T14:08:28.597Z,7.90
2023-01-31T14:11:36.303Z,7.90
2023-01-31T14:14:45.037Z,7.90
2023-01-31T14:18:02.615Z,7.90
2023-01-31T14:21:54.710Z,7.90
2023-01-31T14:25:00.992Z,7.80
2023-01-31T14:28:05.259Z,7.90
2023-01-31T14:31:14.476Z,7.90
2023-01-31T14:34:20.022Z,7.90
2023-01-31T14:37:37.091Z,7.90
2023-01-31T14:40:53.335Z,7.90
2023-01-31T14:44:08.254Z,7.90
2023-01-31T14:47:26.845Z,7.90
2023-01-31T14:51:07.056Z,7.90
2023-01-31T14:54:21.729Z,7.90
2023-01-31T14:57:28.505Z,7.90
2023-01-31T15:00:33.941Z,7.90
2023-01-31T15:03:40.249Z,7.90
2023-01-31T15:06:45.229Z,7.90
2023-01-31T15:09:50.724Z,7.90
2023-01-31T15:12:59.835Z,7.90
2023-01-31T15:16:05.161Z,8.00
2023-01-31T15:19:11.779Z,7.90
2023-01-31T15:22:18.452Z,7.90
2023-01-31T15:25:28.171Z,7.90
2023-01-31T15:28:37.008Z,7.90
2023-01-31T15:31:44.850Z,7.80
2023-01-31T15:34:55.159Z,7.80
2023-01-31T15:38:04.589Z,7.70
2023-01-31T15:41:20.173Z,7.70
2023-01-31T15:44:26.546Z,7.80
2023-01-31T15:47:31.170Z,7.70
2023-01-31T15:50:36.337Z,7.80
2023-01-31T15:53:39.340Z,7.80
2023-01-31T15:56:43.213Z,7.80
2023-01-31T15:59:48.831Z,7.80
2023-01-31T16:03:00.420Z,7.80
2023-01-31T16:06:04.093Z,7.80
2023-01-31T16:09:10.581Z,7.80
2023-01-31T16:12:15.114Z,7.80
2023-01-31T16:15:23.410Z,7.80
2023-01-31T16:18:26.967Z,7.90
2023-01-31T16:21:34.127Z,7.60
2023-01-31T16:24:37.045Z,7.00
2023-01-31T16:27:45.308Z,6.60
2023-01-31T16:30:49.858Z,6.30
2023-01-31T16:33:55.059Z,6.10
2023-01-31T16:37:01.961Z,6.00
2023-01-31T16:40:12.995Z,5.80
2023-01-31T16:43:22.692Z,5.80
2023-01-31T16:46:38.798Z,5.70
2023-01-31T16:49:41.752Z,5.60
2023-01-31T16:52:45.734Z,5.60
2023-01-31T16:56:22.206Z,5.60
2023-01-31T16:59:41.057Z,5.60
2023-01-31T17:02:45.657Z,5.70
2023-01-31T17:05:48.697Z,5.70
2023-01-31T17:08:51.704Z,5.70
2023-01-31T17:11:55.341Z,5.70
2023-01-31T17:15:02.482Z,5.80
2023-01-31T17:18:07.792Z,5.80
2023-01-31T17:21:11.437Z,5.80
2023-01-31T17:24:16.020Z,5.80
2023-01-31T17:27:21.282Z,5.80
2023-01-31T17:30:24.332Z,5.90
2023-01-31T17:33:28.761Z,5.90
2023-01-31T17:36:31.761Z,6.00
2023-01-31T17:39:35.220Z,6.00
2023-01-31T17:42:38.176Z,6.10
2023-01-31T17:45:41.214Z,6.10
2023-01-31T17:48:45.838Z,6.10
2023-01-31T17:51:48.854Z,6.20
2023-01-31T17:54:51.959Z,6.30
2023-01-31T17:57:56.049Z,6.40
2023-01-31T18:00:59.004Z,6.40
2023-01-31T18:04:04.243Z,6.40
2023-01-31T18:07:07.158Z,6.40
2023-01-31T18:10:11.047Z,6.50
2023-01-31T18:13:14.010Z,6.50
2023-01-31T18:16:20.771Z,6.50
2023-01-31T18:19:25.198Z,6.50
2023-01-31T18:22:28.161Z,6.50
2023-01-31T18:25:31.664Z,6.50
2023-01-31T18:28:34.817Z,6.50
2023-01-31T18:31:37.855Z,6.60
2023-01-31T18:34:42.216Z,6.60
2023-01-31T18:37:45.217Z,6.70
2023-01-31T18:40:48.175Z,6.70
2023-01-31T18:43:51.228Z,6.70
2023-01-31T18:46:54.278Z,6.70
2023-01-31T18:49:58.655Z,6.70
2023-01-31T18:53:01.592Z,6.60
2023-01-31T18:56:06.612Z,6.70
2023-01-31T18:59:09.566Z,6.70
2023-01-31T19:02:12.568Z,6.70
2023-01-31T19:05:17.079Z,6.80
2023-01-31T19:08:20.029Z,6.80
2023-01-31T19:11:25.207Z,6.90
2023-01-31T19:14:28.222Z,6.90
2023-01-31T19:17:31.156Z,6.80
2023-01-31T19:20:35.455Z,6.80
2023-01-31T19:23:38.449Z,6.70
2023-01-31T19:26:42.044Z,6.60
2023-01-31T19:29:45.134Z,6.50
2023-01-31T19:32:48.121Z,6.50
2023-01-31T19:35:52.435Z,6.50
2023-01-31T19:38:56.362Z,6.50
2023-01-31T19:41:59.624Z,6.50
2023-01-31T19:45:02.569Z,6.60
2023-01-31T19:48:06.245Z,6.60
2023-01-31T19:51:12.790Z,6.60
2023-01-31T19:54:19.204Z,6.60
2023-01-31T19:57:22.226Z,6.70
2023-01-31T20:00:25.409Z,6.70
2023-01-31T20:03:28.702Z,6.70
2023-01-31T20:06:36.099Z,6.70
2023-01-31T20:09:39.030Z,6.70
2023-01-31T20:12:42.010Z,6.70
2023-01-31T20:15:44.951Z,6.60
2023-01-31T20:18:48.296Z,6.60
2023-01-31T20:21:52.605Z,6.60
2023-01-31T20:24:57.009Z,6.60
2023-01-31T20:27:59.945Z,6.60
2023-01-31T20:31:07.514Z,6.70
2023-01-31T20:34:10.595Z,6.70
2023-01-31T20:37:14.903Z,6.60
2023-01-31T20:40:18.091Z,6.70
2023-01-31T20:43:23.248Z,6.60
2023-01-31T20:46:26.268Z,6.60
2023-01-31T20:49:29.378Z,6.60
2023-01-31T20:52:33.709Z,6.60
2023-01-31T20:55:36.811Z,6.70
2023-01-31T20:58:42.321Z,6.60
2023-01-31T21:01:46.625Z,6.50
2023-01-31T21:04:49.711Z,6.40
2023-01-31T21:07:54.005Z,6.30
2023-01-31T21:10:58.697Z,6.30
2023-01-31T21:14:01.686Z,6.20
2023-01-31T21:17:05.076Z,6.20
2023-01-31T21:20:08.873Z,6.10
2023-01-31T21:23:13.178Z,6.10
2023-01-31T21:26:16.212Z,6.10
2023-01-31T21:29:19.246Z,6.10
2023-01-31T21:32:22.198Z,6.20
2023-01-31T21:35:26.460Z,6.30
2023-01-31T21:38:30.949Z,6.40
2023-01-31T21:41:51.647Z,6.40
2023-01-31T21:44:54.620Z,6.40
2023-01-31T21:48:15.664Z,6.40
2023-01-31T21:51:22.067Z,6.40
2023-01-31T21:54:26.443Z,6.40
2023-01-31T21:57:29.407Z,6.40
2023-01-31T22:00:32.399Z,6.50
2023-01-31T22:03:36.374Z,6.60
2023-01-31T22:06:40.985Z,6.60
2023-01-31T22:09:45.296Z,6.60
2023-01-31T22:12:48.255Z,6.50
2023-01-31T22:15:51.298Z,6.40
2023-01-31T22:18:54.377Z,6.40
2023-01-31T22:21:57.328Z,6.30
2023-01-31T22:25:01.600Z,6.30
2023-01-31T22:28:04.583Z,6.40
2023-01-31T22:31:08.887Z,6.40
2023-01-31T22:34:14.645Z,6.50
2023-01-31T22:37:17.687Z,6.60
2023-01-31T22:40:22.971Z,6.60
2023-01-31T22:43:26.684Z,6.60
2023-01-31T22:46:30.519Z,6.60
2023-01-31T22:49:33.690Z,6.60
2023-01-31T22:52:36.637Z,6.70
2023-01-31T22:55:41.333Z,6.70
2023-01-31T22:58:45.014Z,6.70
2023-01-31T23:01:48.141Z,6.70
2023-01-31T23:04:52.359Z,6.70
2023-01-31T23:07:55.817Z,6.70
2023-01-31T23:11:04.993Z,6.60
2023-01-31T23:14:08.007Z,6.60
2023-01-31T23:17:28.648Z,6.50
2023-01-31T23:20:32.782Z,6.50
2023-01-31T23:23:35.807Z,6.40
2023-01-31T23:26:40.132Z,6.40
2023-01-31T23:29:43.123Z,6.30
2023-01-31T23:32:46.463Z,6.30
2023-01-31T23:35:49.856Z,6.20
2023-01-31T23:38:52.812Z,6.30
2023-01-31T23:41:57.137Z,6.30
2023-01-31T23:45:00.157Z,6.40
2023-01-31T23:48:03.133Z,6.40
2023-01-31T23:51:06.754Z,6.50
2023-01-31T23:54:10.457Z,6.50
2023-01-31T23:57:14.768Z,6.50
